Time;durP1;ratioP1;P1;durP2;ratioP2;P2;SDS_P1;SDS_P2;PMS_P1;PMS_P2;Temp;Humidity;BMP_temperature;BMP_pressure;BME280_temperature;BME280_humidity;BME280_pressure;Samples;Min_cycle;Max_cycle;Signal;HPM_P1;HPM_P2
2021/09/19 05:02:27;;;;;;;23.40;20.27;;;;;;;12.84;100.00;94854.97;5081652;23;20491;-94
2021/09/19 05:04:53;;;;;;;25.55;22.85;;;;;;;12.82;100.00;94890.72;4936692;28;20034;-94
2021/09/19 05:07:18;;;;;;;24.02;21.45;;;;;;;12.85;100.00;94886.94;4952721;28;20093;-93
2021/09/19 05:09:47;;;;;;;24.70;22.17;;;;;;;12.85;100.00;94890.34;5287366;23;20474;-95
2021/09/19 05:12:12;;;;;;;25.25;22.58;;;;;;;12.84;100.00;94893.94;4903143;29;20123;-93
2021/09/19 05:14:38;;;;;;;27.23;24.55;;;;;;;12.43;100.00;94885.09;4879818;29;20032;-93
2021/09/19 05:17:03;;;;;;;20.85;18.80;;;;;;;12.63;100.00;94888.72;4881320;29;20031;-93
2021/09/19 05:19:29;;;;;;;23.20;20.92;;;;;;;13.01;100.00;94892.69;4898476;29;20039;-93
2021/09/19 05:21:55;;;;;;;17.95;16.55;;;;;;;13.26;100.00;94887.13;4914319;29;20028;-93
2021/09/19 05:24:20;;;;;;;27.05;24.38;;;;;;;13.39;100.00;94872.41;4898679;29;20867;-92
2021/09/19 05:26:46;;;;;;;19.05;17.55;;;;;;;13.56;100.00;94857.31;4897904;29;20028;-92
2021/09/19 05:29:11;;;;;;;23.63;21.23;;;;;;;13.64;100.00;94855.38;4898277;29;20515;-90
2021/09/19 05:31:37;;;;;;;23.25;20.85;;;;;;;13.85;100.00;94831.03;4882727;29;20032;-89
2021/09/19 05:34:04;;;;;;;21.60;19.77;;;;;;;13.57;100.00;94830.28;4900879;29;20032;-88
2021/09/19 05:36:30;;;;;;;21.30;19.35;;;;;;;13.69;100.00;94834.75;4880633;29;20036;-90
2021/09/19 05:38:55;;;;;;;21.38;19.00;;;;;;;14.09;100.00;94821.94;4896472;29;20036;-89
2021/09/19 05:41:20;;;;;;;16.75;15.18;;;;;;;15.30;100.00;94777.31;4897260;29;20028;-90
2021/09/19 05:43:46;;;;;;;16.45;14.98;;;;;;;17.88;80.48;94700.25;4880841;29;20506;-88
2021/09/19 05:46:11;;;;;;;54.92;18.58;;;;;;;15.66;91.72;94727.25;4881983;29;20425;-90
2021/09/19 05:48:39;;;;;;;12.43;11.52;;;;;;;16.95;89.78;94733.69;4882197;29;20028;-90
2021/09/19 05:51:05;;;;;;;13.27;12.23;;;;;;;17.94;81.88;94725.56;4882531;29;20111;-87
2021/09/19 05:53:30;;;;;;;13.43;12.45;;;;;;;18.02;82.76;94717.38;4897057;29;20032;-87
2021/09/19 05:55:55;;;;;;;11.57;10.80;;;;;;;17.89;81.35;94707.06;4895609;29;20036;-87
2021/09/19 05:58:21;;;;;;;11.82;10.98;;;;;;;18.85;78.35;94699.81;4897450;29;20066;-86
2021/09/19 06:00:46;;;;;;;12.07;11.32;;;;;;;17.87;78.94;94688.16;4896551;29;20028;-85
2021/09/19 06:03:12;;;;;;;9.30;8.70;;;;;;;17.70;82.14;94692.41;4897117;29;20565;-87
2021/09/19 06:05:37;;;;;;;12.43;11.63;;;;;;;18.10;81.65;94687.44;4895227;29;20024;-88
2021/09/19 06:08:03;;;;;;;11.50;10.80;;;;;;;22.04;64.98;94677.13;4913052;29;20036;-90
2021/09/19 06:10:28;;;;;;;9.82;9.18;;;;;;;24.78;55.85;94691.59;4902209;29;20059;-86
2021/09/19 06:12:54;;;;;;;72.88;9.20;;;;;;;23.79;57.34;94683.94;4898289;29;20032;-85
2021/09/19 06:15:19;;;;;;;8.40;7.90;;;;;;;24.57;54.30;94677.53;4898725;29;20405;-85
2021/09/19 06:17:45;;;;;;;209.07;14.13;;;;;;;22.56;59.20;94696.63;4878055;29;20510;-84
2021/09/19 06:20:10;;;;;;;7.85;7.13;;;;;;;22.14;61.46;94679.06;4895362;29;20478;-83
2021/09/19 06:22:36;;;;;;;6.43;5.93;;;;;;;24.42;53.59;94668.78;4862492;29;20490;-85
2021/09/19 06:25:01;;;;;;;8.20;7.45;;;;;;;24.88;53.47;94669.63;4879808;29;20053;-84
2021/09/19 06:27:27;;;;;;;7.88;7.28;;;;;;;24.36;56.21;94673.28;4895653;29;20032;-84
2021/09/19 06:29:53;;;;;;;368.95;19.05;;;;;;;21.77;60.87;94686.81;4913415;29;20457;-83
2021/09/19 06:32:18;;;;;;;7.68;7.20;;;;;;;23.47;57.25;94683.31;4930443;29;20414;-83
2021/09/19 06:34:44;;;;;;;5.50;5.20;;;;;;;25.06;52.49;94691.09;4896659;29;20019;-83
2021/09/19 06:37:09;;;;;;;6.55;6.13;;;;;;;26.05;50.94;94700.09;4898092;29;20052;-83
2021/09/19 06:39:35;;;;;;;6.78;6.38;;;;;;;27.38;47.65;94691.72;4911777;29;20036;-81
2021/09/19 06:42:00;;;;;;;6.10;5.68;;;;;;;29.03;43.94;94694.38;4913511;29;20027;-82
2021/09/19 06:44:26;;;;;;;5.80;5.50;;;;;;;26.65;48.26;94699.00;4895947;29;20082;-82
2021/09/19 06:46:53;;;;;;;5.20;4.82;;;;;;;28.26;42.78;94701.91;4882674;29;20059;-81
2021/09/19 06:49:19;;;;;;;4.57;4.37;;;;;;;30.12;40.11;94707.91;4896865;29;20027;-83
2021/09/19 06:51:44;;;;;;;5.05;4.75;;;;;;;29.18;41.40;94710.16;4912156;29;20429;-81
2021/09/19 06:54:10;;;;;;;5.85;5.45;;;;;;;29.09;42.28;94709.25;4913521;29;20409;-81
2021/09/19 06:56:35;;;;;;;5.82;5.32;;;;;;;28.81;43.58;94708.34;4911957;29;20032;-80
2021/09/19 06:59:01;;;;;;;19.08;5.85;;;;;;;29.36;40.94;94695.19;4913583;29;20038;-81
2021/09/19 07:01:26;;;;;;;5.00;4.70;;;;;;;29.72;41.38;94696.13;4911569;29;20042;-81
2021/09/19 07:03:52;;;;;;;74.28;7.57;;;;;;;29.92;40.25;94698.44;4897469;29;20036;-78
2021/09/19 07:06:17;;;;;;;6.30;5.90;;;;;;;28.27;43.29;94693.66;4896322;29;20036;-80
2021/09/19 07:08:46;;;;;;;5.25;4.85;;;;;;;28.74;44.17;94689.25;4881646;29;20402;-80
2021/09/19 07:11:12;;;;;;;128.13;11.03;;;;;;;23.36;55.54;94706.22;4896953;29;20130;-81
2021/09/19 07:13:37;;;;;;;6.38;5.95;;;;;;;24.17;56.62;94695.22;4928968;29;20367;-81
2021/09/19 07:16:03;;;;;;;6.53;6.13;;;;;;;21.93;61.04;94701.81;4897417;29;20032;-81
2021/09/19 07:18:28;;;;;;;1373.30;63.83;;;;;;;19.96;63.96;94711.91;4880438;29;20032;-81
2021/09/19 07:20:54;;;;;;;997.67;46.63;;;;;;;19.18;68.75;94711.56;4912352;29;20036;-81
2021/09/19 07:23:21;;;;;;;7.45;6.93;;;;;;;19.16;69.42;94708.38;4896212;29;20042;-81
2021/09/19 07:25:46;;;;;;;6.38;5.97;;;;;;;18.89;70.90;94708.81;4897372;29;20028;-82
2021/09/19 07:28:12;;;;;;;7.95;7.45;;;;;;;19.36;74.13;94712.22;4897097;29;20040;-81
2021/09/19 07:30:38;;;;;;;7.10;6.70;;;;;;;18.98;74.69;94713.72;4898426;29;20015;-81
2021/09/19 07:33:03;;;;;;;7.45;7.00;;;;;;;19.29;71.74;94684.50;4934431;29;20416;-83
2021/09/19 07:35:29;;;;;;;7.63;7.10;;;;;;;20.00;71.06;94703.28;4899481;29;20023;-81
2021/09/19 07:37:54;;;;;;;9.35;8.02;;;;;;;20.13;70.00;94707.47;4901036;29;20493;-81
2021/09/19 07:40:20;;;;;;;53.22;8.65;;;;;;;20.77;67.57;94711.50;4914871;29;20028;-80
2021/09/19 07:42:46;;;;;;;8.45;7.65;;;;;;;20.37;67.43;94700.28;4916408;29;20028;-77
2021/09/19 07:45:12;;;;;;;8.50;7.22;;;;;;;20.82;68.14;94716.03;4899792;29;20098;-82
2021/09/19 07:47:38;;;;;;;7.43;6.93;;;;;;;20.62;67.61;94699.91;4900367;29;20038;-80
2021/09/19 07:50:03;;;;;;;32.38;7.57;;;;;;;20.15;64.84;94700.16;4870740;29;20056;-80
2021/09/19 07:52:30;;;;;;;7.80;7.30;;;;;;;20.14;66.28;94697.75;4898496;29;20028;-80
2021/09/19 07:54:56;;;;;;;8.90;8.30;;;;;;;19.98;67.79;94715.88;4915896;29;20028;-79
2021/09/19 07:57:22;;;;;;;8.40;7.90;;;;;;;20.52;67.88;94705.81;4913850;29;20027;-82
2021/09/19 07:59:51;;;;;;;7.97;7.40;;;;;;;20.70;66.69;94717.97;4884495;29;20028;-81
2021/09/19 08:02:17;;;;;;;8.43;7.82;;;;;;;21.38;66.55;94710.56;4883904;29;20134;-80
2021/09/19 08:04:42;;;;;;;9.43;8.50;;;;;;;19.63;71.10;94727.53;4899988;29;20035;-87
2021/09/19 08:07:08;;;;;;;8.13;7.63;;;;;;;20.47;68.44;94730.22;4900295;29;20568;-79
2021/09/19 08:09:33;;;;;;;8.40;7.80;;;;;;;20.30;68.84;94718.84;4899451;29;20032;-85
2021/09/19 08:11:59;;;;;;;7.43;6.95;;;;;;;20.84;68.72;94724.47;4899228;29;20430;-79
2021/09/19 08:14:24;;;;;;;8.85;8.25;;;;;;;20.87;65.89;94727.44;4897711;29;20031;-80
2021/09/19 08:16:50;;;;;;;9.07;8.57;;;;;;;20.94;68.68;94725.44;4914847;29;20413;-82
2021/09/19 08:19:15;;;;;;;7.40;6.90;;;;;;;21.98;66.33;94731.66;4930953;29;20400;-83
2021/09/19 08:21:41;;;;;;;21.10;7.13;;;;;;;20.80;61.98;94732.09;4931226;29;20039;-80
2021/09/19 08:24:07;;;;;;;7.45;6.90;;;;;;;20.75;66.79;94732.00;4913837;29;20027;-80
2021/09/19 08:26:33;;;;;;;7.68;7.18;;;;;;;20.80;64.95;94726.81;4913938;29;20114;-78
2021/09/19 08:28:58;;;;;;;6.55;6.05;;;;;;;21.32;65.33;94719.44;4913538;29;20062;-79
2021/09/19 08:31:24;;;;;;;7.53;7.03;;;;;;;21.30;65.17;94718.09;4897640;29;20509;-78
2021/09/19 08:33:49;;;;;;;6.65;6.25;;;;;;;21.46;63.79;94714.63;4914649;29;20051;-78
2021/09/19 08:36:15;;;;;;;8.15;7.45;;;;;;;20.87;65.94;94724.81;4881749;29;20119;-79
2021/09/19 08:38:41;;;;;;;8.75;7.93;;;;;;;20.58;68.14;94736.44;4914583;29;20023;-80
2021/09/19 08:41:06;;;;;;;94.30;10.13;;;;;;;21.33;65.90;94731.59;4930388;29;20028;-84
2021/09/19 08:43:32;;;;;;;6.30;5.63;;;;;;;21.41;64.05;94725.91;4882738;29;20032;-80
2021/09/19 08:45:57;;;;;;;6.53;6.03;;;;;;;21.33;64.88;94722.88;4897985;29;20059;-79
2021/09/19 08:48:23;;;;;;;7.05;6.55;;;;;;;20.89;64.96;94725.38;4897832;29;20520;-80
2021/09/19 08:50:50;;;;;;;42.30;7.40;;;;;;;21.06;66.52;94717.47;4930366;29;20434;-82
2021/09/19 08:53:16;;;;;;;6.60;6.20;;;;;;;21.93;65.49;94720.28;4897162;29;20039;-78
2021/09/19 08:55:43;;;;;;;7.20;6.80;;;;;;;22.19;62.53;94714.19;4898789;29;20959;-80
2021/09/19 08:58:08;;;;;;;6.85;6.22;;;;;;;22.88;62.14;94720.44;4882353;29;20042;-81
2021/09/19 09:00:48;;;;;;;7.07;6.68;;;;;;;22.88;61.69;94723.06;4898834;29;20027;-82
2021/09/19 09:03:14;;;;;;;7.55;7.05;;;;;;;21.76;61.62;94711.59;4914130;29;20122;-79
2021/09/19 09:05:40;;;;;;;56.92;8.60;;;;;;;20.72;66.47;94714.03;4897813;29;20031;-81
2021/09/19 09:08:06;;;;;;;8.32;7.72;;;;;;;21.40;67.04;94712.97;4897956;29;20901;-80
2021/09/19 09:10:59;;;;;;;8.73;7.95;;;;;;;21.16;69.47;94712.38;4896896;29;20048;-81
2021/09/19 09:13:26;;;;;;;58.00;8.75;;;;;;;21.31;68.70;94717.88;4911518;29;20036;-79
2021/09/19 09:16:02;;;;;;;6.43;6.03;;;;;;;22.34;66.77;94714.38;4897135;29;20028;-81
2021/09/19 09:18:31;;;;;;;6.70;6.30;;;;;;;22.10;67.72;94722.81;4897904;29;20086;-88
2021/09/19 09:21:21;;;;;;;4.47;4.18;;;;;;;21.38;64.73;94715.84;4924597;29;20110;-83
2021/09/19 09:23:47;;;;;;;;;;;;;;;21.51;64.63;94715.50;4911449;29;20098;-84
2021/09/19 09:26:15;;;;;;;4.28;3.90;;;;;;;21.83;64.60;94712.22;4895170;29;20348;-81
2021/09/19 09:28:43;;;;;;;4.63;4.22;;;;;;;21.72;65.89;94708.63;4894684;29;20032;-80
2021/09/19 09:31:09;;;;;;;6.78;4.35;;;;;;;21.42;66.99;94710.88;4929035;29;20074;-80
2021/09/19 09:33:34;;;;;;;4.22;3.92;;;;;;;21.01;68.06;94704.22;4930160;29;20110;-81
2021/09/19 09:36:07;;;;;;;31.98;5.25;;;;;;;21.00;68.35;94711.31;4929604;29;20067;-84
2021/09/19 09:38:33;;;;;;;4.47;4.07;;;;;;;21.49;67.50;94706.22;4931310;29;20024;-82
2021/09/19 09:40:58;;;;;;;4.20;3.50;;;;;;;21.80;62.91;94710.84;4896898;29;20038;-83
2021/09/19 09:43:24;;;;;;;3.78;3.58;;;;;;;21.19;63.73;94698.72;4914187;29;20023;-80
2021/09/19 09:45:50;;;;;;;3.97;3.78;;;;;;;21.21;65.71;94693.22;4911537;29;20453;-80
2021/09/19 09:48:42;;;;;;;20.13;3.97;;;;;;;21.03;66.38;94686.31;4897568;29;20512;-89
2021/09/19 09:51:21;;;;;;;4.00;3.70;;;;;;;21.14;66.70;94687.31;4926899;29;20083;-82
2021/09/19 09:53:59;;;;;;;3.60;3.30;;;;;;;21.14;67.09;94682.03;4878394;29;20540;-83
2021/09/19 09:56:25;;;;;;;4.55;3.83;;;;;;;21.31;66.96;94686.25;4897501;29;20535;-82
2021/09/19 09:58:51;;;;;;;3.90;3.60;;;;;;;21.27;67.49;94679.88;4929530;29;20032;-81
2021/09/19 10:01:16;;;;;;;4.60;4.30;;;;;;;21.04;69.21;94677.41;4881811;29;20032;-83
2021/09/19 10:03:43;;;;;;;4.55;4.15;;;;;;;20.77;67.54;94665.94;4896348;29;20035;-85
2021/09/19 10:06:08;;;;;;;4.35;4.00;;;;;;;20.82;70.11;94668.66;4896004;29;20414;-84
2021/09/19 10:08:34;;;;;;;83.82;6.63;;;;;;;20.71;68.05;94675.59;4897312;29;20038;-85
2021/09/19 10:10:59;;;;;;;4.70;4.28;;;;;;;20.88;68.41;94675.59;4895332;29;20521;-82
2021/09/19 10:13:25;;;;;;;5.25;4.95;;;;;;;20.85;69.24;94676.06;4897834;29;20024;-82
2021/09/19 10:15:51;;;;;;;5.90;5.50;;;;;;;21.13;70.70;94670.69;4879807;29;20485;-89
2021/09/19 10:18:16;;;;;;;5.10;4.70;;;;;;;21.62;68.41;94674.25;4896645;29;20031;-83
2021/09/19 10:20:48;;;;;;;5.00;4.70;;;;;;;21.42;66.56;94661.59;4896200;29;20027;-83
2021/09/19 10:23:21;;;;;;;6.85;5.35;;;;;;;21.08;68.25;94640.84;4881826;29;20051;-80
2021/09/19 10:25:53;;;;;;;6.75;6.30;;;;;;;20.70;69.16;94654.78;4911708;29;20106;-81
2021/09/19 10:28:18;;;;;;;8.35;7.65;;;;;;;20.76;71.94;94670.41;4911269;29;20083;-82
2021/09/19 10:31:09;;;;;;;7.30;6.90;;;;;;;21.27;72.31;94666.69;4912250;29;20028;-85
2021/09/19 10:33:35;;;;;;;6.20;5.78;;;;;;;22.15;71.94;94665.63;4929186;29;20087;-81
2021/09/19 10:36:01;;;;;;;7.07;6.43;;;;;;;22.57;69.48;94666.50;4881138;29;20111;-88
2021/09/19 10:38:36;;;;;;;165.15;11.25;;;;;;;22.24;63.66;94652.78;4912070;29;20062;-80
2021/09/19 10:41:22;;;;;;;5.97;5.57;;;;;;;22.06;66.97;94659.97;4878815;29;20524;-84
2021/09/19 10:43:55;;;;;;;6.57;6.13;;;;;;;21.07;70.37;94647.13;4910213;29;20035;-83
2021/09/19 10:46:35;;;;;;;7.57;6.85;;;;;;;22.01;67.23;94648.59;4907518;29;20560;-83
2021/09/19 10:49:14;;;;;;;7.47;6.93;;;;;;;21.60;66.53;94649.16;4928885;29;20062;-80
2021/09/19 10:52:01;;;;;;;39.13;7.30;;;;;;;22.24;67.67;94640.38;4912090;29;20059;-87
2021/09/19 10:54:43;;;;;;;7.13;6.53;;;;;;;22.33;69.22;94636.22;4928046;29;20059;-82
2021/09/19 10:57:32;;;;;;;368.05;22.73;;;;;;;20.69;70.20;94629.47;4928414;29;20460;-82
2021/09/19 11:00:17;;;;;;;9.40;8.70;;;;;;;21.24;71.82;94638.19;4911553;29;20030;-81
2021/09/19 11:03:02;;;;;;;8.00;7.35;;;;;;;21.45;69.51;94624.22;4927387;29;20199;-82
2021/09/19 11:05:36;;;;;;;8.60;8.00;;;;;;;22.21;71.71;94630.31;4914484;29;20425;-85
2021/09/19 11:08:07;;;;;;;7.25;6.63;;;;;;;22.57;67.86;94624.28;4915647;29;20047;-82
2021/09/19 11:10:34;;;;;;;8.38;7.78;;;;;;;22.12;68.87;94623.91;4933167;29;20188;-80
2021/09/19 11:13:18;;;;;;;7.90;7.30;;;;;;;21.29;70.26;94611.09;4899063;29;20032;-84
2021/09/19 11:15:43;;;;;;;7.05;6.45;;;;;;;22.21;67.89;94603.13;4920764;29;20044;-79
2021/09/19 11:18:23;;;;;;;8.02;7.40;;;;;;;22.06;71.82;94588.75;4920141;29;20513;-83
2021/09/19 11:20:49;;;;;;;;;;;;;;;22.41;68.21;94614.63;4881857;29;20035;-82
2021/09/19 11:23:21;;;;;;;76.25;10.48;;;;;;;21.92;66.38;94603.41;4896581;29;19926;-79
2021/09/19 11:25:47;;;;;;;8.02;7.43;;;;;;;22.88;67.14;94600.75;4896542;29;20028;-90
2021/09/19 11:28:12;;;;;;;7.63;7.05;;;;;;;22.34;67.51;94613.28;4896352;29;20032;-80
2021/09/19 11:30:38;;;;;;;7.57;6.93;;;;;;;22.00;70.31;94607.41;4896442;29;20028;-87
2021/09/19 11:33:11;;;;;;;7.82;7.30;;;;;;;22.58;67.34;94594.19;4884891;29;20630;-80
2021/09/19 11:35:38;;;;;;;8.65;8.00;;;;;;;22.07;69.13;94594.81;4899913;29;20516;-79
2021/09/19 11:38:04;;;;;;;103.65;12.23;;;;;;;21.24;70.93;94609.22;4897953;29;20039;-79
2021/09/19 11:40:29;;;;;;;8.88;8.10;;;;;;;20.99;72.76;94624.66;4926239;29;20027;-91
2021/09/19 11:42:57;;;;;;;8.73;8.13;;;;;;;20.91;72.43;94611.91;4914725;29;20035;-87
2021/09/19 11:45:22;;;;;;;8.68;7.95;;;;;;;21.44;72.74;94593.66;4911868;29;20020;-81
2021/09/19 11:47:50;;;;;;;10.10;9.30;;;;;;;21.12;70.64;94578.75;4880832;29;20719;-79
2021/09/19 11:50:16;;;;;;;8.73;8.02;;;;;;;21.49;70.75;94590.25;4895790;29;20032;-82
2021/09/19 11:52:41;;;;;;;9.40;8.00;;;;;;;21.71;68.62;94577.03;4900553;29;20145;-79
2021/09/19 11:55:07;;;;;;;7.50;6.90;;;;;;;22.62;68.95;94562.00;4893206;29;20401;-86
2021/09/19 11:57:33;;;;;;;9.45;6.97;;;;;;;22.13;68.06;94574.56;4930837;29;20569;-88
2021/09/19 12:00:05;;;;;;;7.72;6.88;;;;;;;21.57;70.85;94594.31;4930160;29;20035;-83
2021/09/19 12:02:31;;;;;;;7.57;6.88;;;;;;;22.30;70.09;94593.69;4931059;29;20039;-83
2021/09/19 12:04:56;;;;;;;72.63;10.13;;;;;;;21.89;70.15;94566.19;4931011;29;20540;-86
2021/09/19 12:07:23;;;;;;;8.27;7.55;;;;;;;22.49;69.05;94553.47;4880015;29;20040;-85
2021/09/19 12:09:50;;;;;;;7.78;6.90;;;;;;;23.10;66.59;94553.81;4876236;29;20035;-82
2021/09/19 12:12:16;;;;;;;7.68;6.88;;;;;;;23.20;67.27;94555.72;4904026;29;20032;-85
2021/09/19 12:14:46;;;;;;;7.43;6.82;;;;;;;23.13;66.31;94555.16;4899783;29;20539;-84
2021/09/19 12:17:12;;;;;;;7.00;6.50;;;;;;;22.88;67.46;94551.34;4932748;29;20084;-86
2021/09/19 12:19:41;;;;;;;7.25;6.57;;;;;;;23.28;67.51;94552.59;4919838;29;20111;-82
2021/09/19 12:22:06;;;;;;;;;;;;;;;23.15;65.33;94556.47;4893783;29;20031;-81
2021/09/19 12:24:34;;;;;;;8.63;7.93;;;;;;;22.79;67.00;94562.66;4930579;29;19969;-81
2021/09/19 12:27:09;;;;;;;7.32;6.82;;;;;;;22.76;68.81;94552.59;4899332;29;20027;-80
2021/09/19 12:29:35;;;;;;;7.78;7.25;;;;;;;22.63;69.48;94559.09;4929638;29;20445;-80
2021/09/19 12:32:00;;;;;;;8.25;7.45;;;;;;;23.02;68.40;94557.75;4931224;29;20024;-88
2021/09/19 12:34:26;;;;;;;21.48;7.72;;;;;;;22.75;66.10;94564.22;4910512;29;20447;-82
2021/09/19 12:36:53;;;;;;;9.98;8.77;;;;;;;22.88;67.15;94547.91;4930086;29;20038;-84
2021/09/19 12:39:24;;;;;;;7.55;6.95;;;;;;;22.97;67.26;94544.53;4929025;29;20147;-83
2021/09/19 12:41:51;;;;;;;8.10;7.25;;;;;;;22.64;68.75;94544.84;4903333;29;20032;-84
2021/09/19 12:44:18;;;;;;;8.15;7.35;;;;;;;22.70;69.14;94546.47;4899471;29;20031;-83
2021/09/19 12:46:46;;;;;;;7.75;6.43;;;;;;;22.57;68.88;94528.44;4882082;29;20384;-88
2021/09/19 12:49:19;;;;;;;7.38;6.70;;;;;;;22.66;69.42;94519.00;4915827;29;20027;-87
2021/09/19 12:52:07;;;;;;;41.05;9.32;;;;;;;22.58;70.17;94551.94;4921216;29;20067;-84
2021/09/19 12:54:53;;;;;;;8.32;7.72;;;;;;;22.60;68.70;94526.06;4930874;29;20027;-84
2021/09/19 12:57:21;;;;;;;7.72;7.00;;;;;;;22.65;69.28;94543.00;4943715;29;20059;-86
2021/09/19 12:59:47;;;;;;;8.60;7.90;;;;;;;22.34;71.37;94547.28;4921408;29;20028;-83
2021/09/19 13:02:13;;;;;;;8.02;7.32;;;;;;;22.04;72.52;94524.91;4903058;29;20032;-84
2021/09/19 13:04:38;;;;;;;12.80;8.40;;;;;;;21.97;73.75;94526.94;4929111;29;20031;-87
2021/09/19 13:07:04;;;;;;;9.60;8.70;;;;;;;22.11;72.61;94537.09;4944147;29;20078;-81
2021/09/19 13:09:30;;;;;;;8.30;7.65;;;;;;;22.00;73.25;94534.34;4927608;29;20085;-86
2021/09/19 13:11:55;;;;;;;10.30;7.60;;;;;;;22.30;72.31;94539.09;4930496;29;20071;-89
2021/09/19 13:14:21;;;;;;;8.15;7.40;;;;;;;22.46;71.02;94530.22;4920774;29;20079;-83
2021/09/19 13:16:46;;;;;;;8.57;7.78;;;;;;;22.42;72.24;94536.25;4910235;29;20035;-87
2021/09/19 13:19:12;;;;;;;10.15;7.95;;;;;;;22.14;72.88;94532.09;4891790;29;20410;-88
2021/09/19 13:21:38;;;;;;;49.92;9.23;;;;;;;22.01;71.94;94520.13;4913501;29;20027;-82
2021/09/19 13:24:04;;;;;;;9.32;8.27;;;;;;;22.11;72.95;94529.16;4899213;29;20031;-88
2021/09/19 13:26:31;;;;;;;8.20;7.50;;;;;;;21.99;73.55;94538.03;4914165;29;20019;-87
2021/09/19 13:28:57;;;;;;;9.07;8.27;;;;;;;21.84;73.35;94542.34;4913233;29;20015;-78
2021/09/19 13:31:22;;;;;;;12.38;8.20;;;;;;;21.96;72.77;94559.63;4910279;29;20505;-84
2021/09/19 13:33:48;;;;;;;8.75;7.90;;;;;;;21.90;72.77;94563.28;4913245;29;20036;-86
2021/09/19 13:36:13;;;;;;;10.52;8.80;;;;;;;21.56;74.06;94543.41;4914746;29;20044;-85
2021/09/19 13:38:38;;;;;;;34.42;9.25;;;;;;;21.58;74.37;94565.03;4912909;29;20490;-84
2021/09/19 13:41:06;;;;;;;9.20;8.38;;;;;;;21.65;73.59;94560.38;4896863;29;20052;-88
2021/09/19 13:43:32;;;;;;;59.30;10.88;;;;;;;21.42;73.80;94560.66;4900182;29;20031;-87
2021/09/19 13:45:58;;;;;;;9.30;8.50;;;;;;;21.46;74.47;94569.66;4914769;29;20126;-86
2021/09/19 13:48:24;;;;;;;9.68;8.70;;;;;;;21.54;74.26;94579.78;4882407;29;20031;-87
2021/09/19 13:50:49;;;;;;;15.35;12.60;;;;;;;21.49;75.44;94583.16;4881366;29;20039;-87
2021/09/19 13:53:15;;;;;;;27.48;10.77;;;;;;;21.24;75.76;94584.69;4878637;29;20040;-85
2021/09/19 13:55:40;;;;;;;10.27;9.48;;;;;;;21.23;75.36;94562.81;4877963;29;20035;-82
2021/09/19 13:58:06;;;;;;;47.53;10.45;;;;;;;21.06;76.46;94575.25;4879469;29;20047;-81
2021/09/19 14:00:32;;;;;;;208.43;20.48;;;;;;;20.75;77.19;94568.78;4877622;29;20062;-82
2021/09/19 14:02:58;;;;;;;11.80;10.65;;;;;;;21.11;77.78;94574.53;4907837;29;20027;-81
2021/09/19 14:05:25;;;;;;;31.80;14.93;;;;;;;20.71;78.80;94578.19;4907034;29;20048;-87
2021/09/19 14:07:51;;;;;;;27.02;10.38;;;;;;;20.81;78.42;94573.06;4878428;29;20035;-90
2021/09/19 14:10:16;;;;;;;135.80;12.60;;;;;;;20.61;79.36;94578.06;4925905;29;20055;-86
2021/09/19 14:12:42;;;;;;;70.70;10.80;;;;;;;20.45;80.23;94557.81;4912639;29;20050;-86
2021/09/19 14:15:09;;;;;;;62.97;10.68;;;;;;;20.59;79.10;94584.59;4913017;29;20040;-86
2021/09/19 14:17:35;;;;;;;11.65;9.30;;;;;;;20.63;79.43;94581.25;4911331;29;20039;-82
2021/09/19 14:20:00;;;;;;;12.68;8.80;;;;;;;20.55;80.28;94586.13;4897178;29;20126;-86
2021/09/19 14:22:26;;;;;;;43.78;10.55;;;;;;;20.46;79.72;94573.34;4892376;29;20454;-85
2021/09/19 14:24:51;;;;;;;248.68;16.35;;;;;;;20.27;80.45;94577.28;4887675;29;20584;-88
2021/09/19 14:27:17;;;;;;;179.40;14.25;;;;;;;20.25;80.84;94568.00;4879633;29;20032;-83
2021/09/19 14:29:43;;;;;;;746.30;38.35;;;;;;;20.35;80.29;94576.09;4895873;29;20517;-82
2021/09/19 14:32:08;;;;;;;10.50;7.80;;;;;;;20.52;80.35;94575.03;4911112;29;20420;-82
2021/09/19 14:34:33;;;;;;;64.97;11.05;;;;;;;20.58;80.43;94569.84;4910343;29;20111;-85
2021/09/19 14:36:59;;;;;;;8.68;7.82;;;;;;;20.74;79.11;94566.41;4905160;29;20066;-85
2021/09/19 14:39:25;;;;;;;10.45;7.30;;;;;;;20.89;78.63;94569.22;4904382;29;20035;-86
2021/09/19 14:41:51;;;;;;;14.18;7.88;;;;;;;20.98;78.69;94567.75;4895707;29;20805;-84
2021/09/19 14:44:17;;;;;;;9.07;8.23;;;;;;;20.93;77.26;94554.53;4893416;29;20592;-83
2021/09/19 14:46:42;;;;;;;8.27;7.32;;;;;;;20.91;77.42;94548.69;4894625;29;20032;-84
2021/09/19 14:49:08;;;;;;;80.30;9.60;;;;;;;20.87;77.77;94558.16;4892693;29;20474;-82
2021/09/19 14:51:33;;;;;;;10.45;7.35;;;;;;;20.96;77.50;94532.97;4903812;29;20036;-86
2021/09/19 14:53:59;;;;;;;8.20;7.40;;;;;;;21.49;76.09;94543.63;4878291;29;20044;-85
2021/09/19 14:56:24;;;;;;;8.23;7.43;;;;;;;21.80;75.38;94543.91;4893775;29;20414;-87
2021/09/19 14:58:50;;;;;;;8.32;7.43;;;;;;;21.44;76.18;94553.31;4862181;29;20864;-88
2021/09/19 15:01:15;;;;;;;8.05;7.25;;;;;;;21.85;74.62;94549.22;4877519;29;20115;-87
2021/09/19 15:03:41;;;;;;;10.10;7.05;;;;;;;21.79;75.05;94534.41;4862881;29;20028;-89
2021/09/19 15:06:06;;;;;;;31.15;7.70;;;;;;;21.48;75.14;94534.09;4891063;29;20482;-84
2021/09/19 15:08:33;;;;;;;31.20;7.25;;;;;;;21.04;77.51;94550.97;4928244;29;20044;-88
2021/09/19 15:10:58;;;;;;;18.70;6.85;;;;;;;21.26;76.49;94553.63;4912362;29;20505;-82
2021/09/19 15:13:24;;;;;;;11.02;6.97;;;;;;;21.17;77.32;94555.91;4913094;29;20031;-90
2021/09/19 15:15:49;;;;;;;10.55;7.30;;;;;;;21.01;79.05;94551.47;4896753;29;20028;-91
2021/09/19 15:18:14;;;;;;;8.50;7.72;;;;;;;21.05;78.43;94557.84;4880385;29;20036;-90
2021/09/19 15:20:40;;;;;;;7.78;6.97;;;;;;;21.22;78.53;94545.44;4897459;29;20032;-86
2021/09/19 15:23:05;;;;;;;8.38;7.53;;;;;;;21.14;78.94;94540.59;4911464;29;20039;-84
2021/09/19 15:25:31;;;;;;;8.25;7.45;;;;;;;21.12;78.89;94555.84;4896881;29;20059;-85
2021/09/19 15:27:57;;;;;;;11.90;7.97;;;;;;;21.04;78.33;94549.13;4881088;29;20027;-86
2021/09/19 15:30:22;;;;;;;8.48;7.22;;;;;;;21.02;79.07;94540.69;4897641;29;20150;-89
2021/09/19 15:32:48;;;;;;;9.20;7.15;;;;;;;20.95;79.86;94540.06;4897244;29;20505;-85
2021/09/19 15:35:13;;;;;;;8.05;7.25;;;;;;;21.02;79.94;94548.59;4895399;29;20482;-89
2021/09/19 15:37:39;;;;;;;9.60;7.25;;;;;;;20.73;81.03;94538.47;4896245;29;20020;-84
2021/09/19 15:40:05;;;;;;;8.55;7.22;;;;;;;20.80;80.60;94544.34;4879656;29;20140;-82
2021/09/19 15:42:38;;;;;;;13.65;7.55;;;;;;;20.56;80.42;94524.53;4880950;29;20520;-83
2021/09/19 15:45:04;;;;;;;11.35;7.85;;;;;;;20.69;81.17;94538.16;4910851;29;20520;-83
2021/09/19 15:47:31;;;;;;;9.65;8.07;;;;;;;20.53;81.56;94538.97;4880402;29;20042;-86
2021/09/19 15:49:58;;;;;;;8.90;7.75;;;;;;;20.38;81.61;94536.94;4896342;29;20019;-83
2021/09/19 15:52:23;;;;;;;11.40;7.78;;;;;;;20.36;81.61;94536.38;4914745;29;20090;-84
2021/09/19 15:54:48;;;;;;;9.85;7.47;;;;;;;20.26;81.88;94538.84;4883814;29;20035;-83
2021/09/19 15:57:14;;;;;;;9.15;7.30;;;;;;;20.16;83.66;94543.16;4914301;29;20078;-90
2021/09/19 15:59:39;;;;;;;8.07;7.28;;;;;;;20.04;83.49;94524.00;4915772;29;20177;-81
2021/09/19 16:02:05;;;;;;;8.93;8.05;;;;;;;19.79;84.26;94516.50;4898158;29;20078;-81
2021/09/19 16:04:33;;;;;;;10.90;7.72;;;;;;;19.87;85.39;94539.78;4882875;29;20032;-82
2021/09/19 16:06:59;;;;;;;9.77;8.88;;;;;;;19.52;87.42;94528.69;4882558;29;20057;-85
2021/09/19 16:09:24;;;;;;;14.52;8.48;;;;;;;19.24;89.85;94535.47;4883467;29;20494;-85
2021/09/19 16:11:50;;;;;;;13.35;8.60;;;;;;;19.22;90.48;94547.25;4897631;29;20054;-86
2021/09/19 16:14:15;;;;;;;14.45;8.75;;;;;;;19.09;91.37;94543.09;4914304;29;20501;-85
2021/09/19 16:16:43;;;;;;;12.77;8.88;;;;;;;18.79;92.67;94526.72;4914239;29;20063;-84
2021/09/19 16:19:08;;;;;;;11.57;8.63;;;;;;;18.45;94.26;94509.97;4898057;29;20083;-84
2021/09/19 16:21:34;;;;;;;21.33;9.10;;;;;;;18.40;95.99;94523.78;4935424;29;20643;-85
2021/09/19 16:23:59;;;;;;;21.75;9.57;;;;;;;18.09;96.83;94487.41;4898378;29;20047;-85
2021/09/19 16:26:26;;;;;;;20.00;10.02;;;;;;;18.19;97.25;94523.56;4898223;29;20034;-85
2021/09/19 16:28:51;;;;;;;11.75;9.73;;;;;;;18.06;97.85;94524.56;4914587;29;20556;-86
2021/09/19 16:31:17;;;;;;;14.68;9.45;;;;;;;18.00;97.36;94532.53;4929826;29;20042;-86